Broomfield, CO

11:13 PM MDT on September 18, 2014 (GMT -0600)
Buckley Air Force Base | Change Station
CLOSE
Current Station
Airport
Location: Aurora,
Elevation: 5663 ft
Nearby Weather Stations

Elev 5663 ft 39.71 °N, 104.76 °W | Updated 15 minutes ago

Clear
Clear
71 °F
Feels Like 71 °F
N
23
Wind Variable Wind from South
Gusts 29 mph

Today
High -- | Low -- °F
--% Chance of Precip.
Yesterday
High -- | Low -- °F
Precip. -- in
6:44 AM 7:03 PM
Waning Crescent, 22% visible
Pressure 29.75 in
Visibility 10.0 miles
Clouds Clear
Dew Point 40 °F
Humidity 33%
Rainfall 0.00 in
Snow Depth 1 in , 0 in , 0 in
UV 0 out of 12
Pollen 7.70 out of 12
Ozone Good
PM2.5 Good
Flu Activity Not available.
METAR KBKF 190458Z 19020G25KT 10SM CLR 22/05 A2999 RMK AO2A PK WND 19030/20 SLP072 T02190047

More Conditions Fewer Conditions

Pressure 29.75 in
Visibility 10.0 miles
Clouds Clear
Dew Point 40 °F
Humidity 33%
Rainfall 0.00 in
Snow Depth 1 in , 0 in , 0 in
UV 0 out of 12
Pollen 7.70 out of 12
Ozone Good
PM2.5 Good
Flu Activity Not available.
METAR KBKF 190458Z 19020G25KT 10SM CLR 22/05 A2999 RMK AO2A PK WND 19030/20 SLP072 T02190047

More Conditions Fewer Conditions

10-Day Weather Forecast

Almanac

Astronomy

Sep. 18, 2014 Rise Set
Actual Time 6:44 AM MDT 7:03 PM MDT
Civil Twilight 6:17 AM MDT 7:30 PM MDT
Nautical Twilight 5:45 AM MDT 8:02 PM MDT
Astronomical Twilight 5:12 AM MDT 8:35 PM MDT
Moon 1:38 AM MDT (9/18) 3:56 PM MDT (9/18)
Length of Visible Light 13h 13m
Length of Day
12h 19m
Tomorrow will be 2m 36s shorter.
Waning Crescent, 22% of the Moon is Illuminated
Sep 19
Waning Crescent
Sep 24
New
Oct 1
First Quarter
Oct 8
Full
Oct 15
Last Quarter

Yesterday's Extremes

State Highs State Lows

Community

WunderPhotos

Upload Photos

1,754,570 photos uploaded!

Nearby

Air Quality

  Air Quality AQ Index Pollutant
Yesterday Good
OZONE
Yesterday Good
PM10
Current Good
OZONE
Current Good
PM2.5
Thursday Moderate
OZONE
Thursday Good
PM2.5
Friday Moderate
OZONE
Friday Good
PM2.5

Snow Depth

Station Depth Elevation
Lizard Head Pass 1 in 10200 ft
Red Mountain Pass 0 in 11150 ft
Berthoud Summit 0 in 11300 ft
Park Reservoir 0 in 9960 ft
Ivanhoe 0 in 10400 ft

Earthquake Activity

City Distance Mag. Time & Date
No recent earthquake activity has been reported nearby.
Minimum magnitude displayed is 2.5.

Coastal Water Temperatures

Place Temperature
No Stations Reporting

Nearby Weather Stations